createdAt,value
2016-05-24T00:00:21.216Z,56.66
2016-05-24T00:01:21.062Z,56.95
2016-05-24T00:02:21.269Z,56.76
2016-05-24T00:03:21.037Z,56.47
2016-05-24T00:04:21.009Z,57.05
2016-05-24T00:05:21.011Z,56.47
2016-05-24T00:06:20.842Z,56.66
2016-05-24T00:07:20.984Z,56.66
2016-05-24T00:08:21.222Z,57.05
2016-05-24T00:09:20.959Z,56.47
2016-05-24T00:10:20.947Z,56.85
2016-05-24T00:11:20.933Z,56.85
2016-05-24T00:12:20.920Z,56.47
2016-05-24T00:13:20.923Z,56.76
2016-05-24T00:14:20.894Z,56.27
2016-05-24T00:15:20.725Z,56.27
2016-05-24T00:16:21.259Z,56.37
2016-05-24T00:17:20.684Z,56.37
2016-05-24T00:18:20.843Z,56.85
2016-05-24T00:19:20.830Z,56.37
2016-05-24T00:20:20.817Z,56.76
2016-05-24T00:21:20.789Z,56.85
2016-05-24T00:22:20.791Z,56.47
2016-05-24T00:23:20.778Z,56.37
2016-05-24T00:24:20.765Z,56.57
2016-05-24T00:25:20.752Z,56.27
2016-05-24T00:26:20.739Z,56.66
2016-05-24T00:27:20.727Z,56.37
2016-05-24T00:28:20.713Z,56.47
2016-05-24T00:29:21.091Z,56.37
2016-05-24T00:30:20.687Z,56.27
2016-05-24T00:31:20.675Z,56.37
2016-05-24T00:32:20.506Z,56.57
2016-05-24T00:33:20.509Z,56.27
2016-05-24T00:34:20.636Z,56.47
2016-05-24T00:35:20.623Z,56.27
2016-05-24T00:36:20.609Z,56.27
2016-05-24T00:37:20.597Z,56.47
2016-05-24T00:38:20.584Z,56.37
2016-05-24T00:39:20.571Z,56.47
2016-05-24T00:40:20.559Z,56.37
2016-05-24T00:41:20.561Z,56.66
2016-05-24T00:42:20.533Z,56.57
2016-05-24T00:43:20.363Z,56.85
2016-05-24T00:44:20.569Z,57.14
2016-05-24T00:45:20.494Z,56.85
2016-05-24T00:46:20.481Z,56.85
2016-05-24T00:47:20.467Z,56.76
2016-05-24T00:48:20.455Z,56.85
2016-05-24T00:49:20.442Z,56.85
2016-05-24T00:50:20.430Z,56.57
2016-05-24T00:51:20.432Z,56.85
2016-05-24T00:52:20.403Z,56.57
2016-05-24T00:53:20.390Z,56.66
2016-05-24T00:54:20.377Z,56.76
2016-05-24T00:55:20.380Z,56.66
2016-05-24T00:56:20.352Z,56.85
2016-05-24T00:57:20.198Z,56.27
2016-05-24T00:58:20.326Z,57.34
2016-05-24T00:59:20.171Z,57.34
2016-05-24T01:00:20.326Z,57.43
2016-05-24T01:01:20.326Z,57.34
2016-05-24T01:02:20.357Z,57.05
2016-05-24T01:03:20.373Z,57.34
2016-05-24T01:04:20.372Z,56.95
2016-05-24T01:05:20.224Z,57.24
2016-05-24T01:06:20.221Z,57.05
2016-05-24T01:07:20.374Z,56.76
2016-05-24T01:08:20.388Z,56.95
2016-05-24T01:09:20.370Z,57.14
2016-05-24T01:10:20.364Z,57.05
2016-05-24T01:11:20.370Z,57.05
2016-05-24T01:12:20.346Z,56.85
2016-05-24T01:13:20.352Z,56.95
2016-05-24T01:14:20.171Z,56.95
2016-05-24T01:15:20.318Z,57.53
2016-05-24T01:16:20.305Z,57.34
2016-05-24T01:17:20.294Z,57.24
2016-05-24T01:18:20.298Z,56.95
2016-05-24T01:19:20.269Z,56.95
2016-05-24T01:20:20.398Z,57.05
2016-05-24T01:21:20.246Z,57.43
2016-05-24T01:22:20.233Z,57.14
2016-05-24T01:23:20.065Z,56.95
2016-05-24T01:24:20.223Z,57.14
2016-05-24T01:25:20.211Z,56.95
2016-05-24T01:26:20.198Z,56.85
2016-05-24T01:27:20.186Z,56.76
2016-05-24T01:28:20.407Z,56.95
2016-05-24T01:29:20.161Z,56.85
2016-05-24T01:30:20.147Z,56.85
2016-05-24T01:31:20.136Z,56.76
2016-05-24T01:32:20.123Z,56.57
2016-05-24T01:33:19.953Z,56.54
2016-05-24T01:34:20.096Z,56.44
2016-05-24T01:35:20.083Z,56.37
2016-05-24T01:36:20.413Z,56.95
2016-05-24T01:37:20.058Z,56.25
2016-05-24T01:38:20.045Z,56.66
2016-05-24T01:39:20.032Z,56.54
2016-05-24T01:40:20.019Z,56.35
2016-05-24T01:41:20.005Z,56.85
2016-05-24T01:42:19.836Z,56.82
2016-05-24T01:43:19.979Z,56.44
2016-05-24T01:44:20.374Z,56.92
2016-05-24T01:45:19.954Z,56.54
2016-05-24T01:46:19.941Z,56.95
2016-05-24T01:47:19.928Z,56.44
2016-05-24T01:48:19.915Z,56.76
2016-05-24T01:49:19.902Z,56.63
2016-05-24T01:50:19.890Z,56.47
2016-05-24T01:51:19.720Z,57.05
2016-05-24T01:52:20.520Z,56.82
2016-05-24T01:53:19.850Z,56.54
2016-05-24T01:54:19.837Z,56.85
2016-05-24T01:55:19.825Z,56.95
2016-05-24T01:56:19.812Z,56.47
2016-05-24T01:57:19.798Z,56.54
2016-05-24T01:58:19.786Z,56.44
2016-05-24T01:59:19.867Z,56.85
2016-05-24T02:00:20.401Z,56.82
2016-05-24T02:01:19.747Z,56.95
2016-05-24T02:02:19.734Z,56.47
2016-05-24T02:03:19.721Z,57.24
2016-05-24T02:04:19.708Z,56.76
2016-05-24T02:05:19.694Z,56.44
2016-05-24T02:06:19.698Z,56.82
2016-05-24T02:07:19.670Z,56.92
2016-05-24T02:08:19.656Z,56.82
2016-05-24T02:09:19.643Z,56.85
2016-05-24T02:10:19.630Z,57.14
2016-05-24T02:11:19.618Z,56.76
2016-05-24T02:12:19.605Z,56.95
2016-05-24T02:13:19.592Z,56.76
2016-05-24T02:14:19.657Z,56.76
2016-05-24T02:15:19.785Z,56.95
2016-05-24T02:16:19.709Z,56.44
2016-05-24T02:17:19.540Z,56.85
2016-05-24T02:18:19.527Z,56.63
2016-05-24T02:19:19.514Z,56.27
2016-05-24T02:20:19.502Z,56.47
2016-05-24T02:21:19.488Z,56.47
2016-05-24T02:22:19.475Z,56.47
2016-05-24T02:23:19.462Z,56.57
2016-05-24T02:24:19.699Z,56.25
2016-05-24T02:25:19.437Z,56.27
2016-05-24T02:26:19.423Z,56.85
2016-05-24T02:27:19.426Z,56.27
2016-05-24T02:28:19.398Z,56.63
2016-05-24T02:29:19.698Z,56.76
2016-05-24T02:30:19.231Z,56.82
2016-05-24T02:31:19.359Z,56.47
2016-05-24T02:32:19.705Z,57.05
2016-05-24T02:33:19.333Z,56.63
2016-05-24T02:34:19.319Z,56.54
2016-05-24T02:35:19.308Z,56.27
2016-05-24T02:36:19.294Z,56.73
2016-05-24T02:37:19.281Z,56.47
2016-05-24T02:38:19.283Z,56.44
2016-05-24T02:39:19.364Z,56.57
2016-05-24T02:40:19.742Z,56.44
2016-05-24T02:41:19.230Z,56.63
2016-05-24T02:42:19.233Z,56.63
2016-05-24T02:43:19.047Z,56.63
2016-05-24T02:44:19.190Z,56.66
2016-05-24T02:45:19.240Z,56.44
2016-05-24T02:46:19.165Z,57.02
2016-05-24T02:47:19.371Z,56.66
2016-05-24T02:48:19.186Z,56.44
2016-05-24T02:49:19.204Z,56.73
2016-05-24T02:50:19.176Z,56.85
2016-05-24T02:51:18.975Z,56.73
2016-05-24T02:52:19.087Z,56.47
2016-05-24T02:53:19.137Z,56.76
2016-05-24T02:54:18.968Z,56.82
2016-05-24T02:55:19.220Z,57.02
2016-05-24T02:56:19.035Z,56.82
2016-05-24T02:57:19.023Z,57.02
2016-05-24T02:58:19.010Z,57.02
2016-05-24T02:59:18.997Z,56.54
2016-05-24T03:00:18.984Z,56.44
2016-05-24T03:01:18.986Z,56.35
2016-05-24T03:02:18.958Z,56.35
2016-05-24T03:03:19.445Z,56.54
2016-05-24T03:04:18.932Z,56.35
2016-05-24T03:05:18.919Z,56.25
2016-05-24T03:06:18.906Z,56.44
2016-05-24T03:07:18.894Z,56.35
2016-05-24T03:08:18.880Z,56.15
2016-05-24T03:09:18.883Z,56.35
2016-05-24T03:10:18.870Z,56.25
2016-05-24T03:11:19.341Z,56.25
2016-05-24T03:12:18.828Z,56.35
2016-05-24T03:13:18.830Z,56.35
2016-05-24T03:14:18.662Z,56.35
2016-05-24T03:15:18.805Z,56.25
2016-05-24T03:16:18.621Z,56.54
2016-05-24T03:17:18.624Z,56.25
2016-05-24T03:18:18.766Z,56.25
2016-05-24T03:19:19.237Z,56.44
2016-05-24T03:20:18.724Z,56.35
2016-05-24T03:21:18.712Z,56.63
2016-05-24T03:22:18.715Z,56.35
2016-05-24T03:23:18.687Z,56.54
2016-05-24T03:24:18.673Z,56.25
2016-05-24T03:25:18.660Z,56.05
2016-05-24T03:26:18.648Z,56.54
2016-05-24T03:27:18.650Z,56.05
2016-05-24T03:28:18.637Z,56.15
2016-05-24T03:29:18.640Z,56.54
2016-05-24T03:30:18.767Z,56.25
2016-05-24T03:31:18.583Z,56.44
2016-05-24T03:32:18.414Z,56.35
2016-05-24T03:33:18.572Z,56.54
2016-05-24T03:34:18.403Z,56.54
2016-05-24T03:35:18.687Z,56.25
2016-05-24T03:36:18.517Z,56.05
2016-05-24T03:37:18.521Z,56.05
2016-05-24T03:38:18.492Z,56.05
2016-05-24T03:39:18.480Z,56.05
2016-05-24T03:40:18.466Z,55.96
2016-05-24T03:41:18.453Z,56.05
2016-05-24T03:42:18.440Z,56.05
2016-05-24T03:43:18.694Z,55.77
2016-05-24T03:44:18.258Z,55.77
2016-05-24T03:45:18.417Z,56.05
2016-05-24T03:46:18.404Z,55.87
2016-05-24T03:47:18.376Z,55.77
2016-05-24T03:48:18.378Z,56.05
2016-05-24T03:49:18.350Z,55.67
2016-05-24T03:50:18.196Z,55.67
2016-05-24T03:51:18.683Z,55.57
2016-05-24T03:52:18.310Z,55.67
2016-05-24T03:53:18.143Z,55.77
2016-05-24T03:54:18.285Z,55.57
2016-05-24T03:55:18.288Z,55.67
2016-05-24T03:56:18.259Z,55.67
2016-05-24T03:57:18.246Z,55.48
2016-05-24T03:58:18.234Z,55.57
2016-05-24T03:59:18.689Z,55.57
2016-05-24T04:00:18.754Z,56.15
2016-05-24T04:01:18.195Z,55.57
2016-05-24T04:02:18.197Z,55.67
2016-05-24T04:03:18.184Z,55.57
2016-05-24T04:04:18.156Z,55.57
2016-05-24T04:05:18.143Z,55.87
2016-05-24T04:06:18.145Z,55.57
2016-05-24T04:07:18.133Z,55.48
2016-05-24T04:08:18.119Z,55.48
2016-05-24T04:09:18.091Z,55.87
2016-05-24T04:10:18.094Z,55.57
2016-05-24T04:11:18.066Z,55.57
2016-05-24T04:12:18.068Z,55.87
2016-05-24T04:13:18.055Z,55.87
2016-05-24T04:14:18.026Z,55.48
2016-05-24T04:15:18.029Z,55.57
2016-05-24T04:16:18.001Z,55.57
2016-05-24T04:17:18.003Z,55.67
2016-05-24T04:18:17.975Z,55.57
2016-05-24T04:19:17.962Z,55.57
2016-05-24T04:20:17.948Z,55.57
2016-05-24T04:21:17.936Z,55.67
2016-05-24T04:22:17.923Z,55.67
2016-05-24T04:23:17.910Z,55.57
2016-05-24T04:24:17.913Z,55.67
2016-05-24T04:25:17.899Z,55.57
2016-05-24T04:26:17.715Z,55.87
2016-05-24T04:27:17.873Z,55.77
2016-05-24T04:28:17.846Z,55.87
2016-05-24T04:29:17.832Z,55.67
2016-05-24T04:30:17.960Z,55.57
2016-05-24T04:31:17.822Z,55.48
2016-05-24T04:32:17.793Z,55.87
2016-05-24T04:33:17.781Z,55.87
2016-05-24T04:34:17.784Z,55.87
2016-05-24T04:35:17.770Z,55.77
2016-05-24T04:36:17.742Z,55.87
2016-05-24T04:37:17.744Z,55.96
2016-05-24T04:38:17.716Z,55.77
2016-05-24T04:39:17.703Z,55.87
2016-05-24T04:40:17.706Z,55.87
2016-05-24T04:41:17.677Z,56.25
2016-05-24T04:42:17.680Z,55.67
2016-05-24T04:43:17.666Z,55.96
2016-05-24T04:44:17.655Z,56.05
2016-05-24T04:45:18.703Z,55.77
2016-05-24T04:46:17.628Z,55.87
2016-05-24T04:47:17.599Z,55.87
2016-05-24T04:48:17.586Z,55.57
2016-05-24T04:49:17.588Z,56.05
2016-05-24T04:50:17.561Z,55.77
2016-05-24T04:51:17.564Z,55.48
2016-05-24T04:52:17.394Z,55.57
2016-05-24T04:53:17.537Z,55.96
2016-05-24T04:54:17.509Z,55.77
2016-05-24T04:55:17.496Z,55.77
2016-05-24T04:56:17.483Z,56.15
2016-05-24T04:57:17.330Z,55.67
2016-05-24T04:58:17.473Z,55.67
2016-05-24T04:59:17.444Z,55.77
2016-05-24T05:00:17.541Z,55.96
2016-05-24T05:01:17.262Z,55.48
2016-05-24T05:02:17.406Z,55.77
2016-05-24T05:03:17.409Z,55.67
2016-05-24T05:04:17.395Z,55.87
2016-05-24T05:05:17.367Z,56.05
2016-05-24T05:06:17.353Z,55.96
2016-05-24T05:07:17.341Z,55.96
2016-05-24T05:08:17.172Z,55.67
2016-05-24T05:09:17.315Z,55.67
2016-05-24T05:10:17.161Z,55.48
2016-05-24T05:11:17.305Z,55.96
2016-05-24T05:12:17.292Z,55.77
2016-05-24T05:13:17.108Z,55.87
2016-05-24T05:14:17.250Z,55.77
2016-05-24T05:15:17.597Z,55.77
2016-05-24T05:16:17.068Z,55.77
2016-05-24T05:17:17.211Z,55.48
2016-05-24T05:18:17.199Z,55.96
2016-05-24T05:19:17.202Z,55.87
2016-05-24T05:20:17.172Z,55.19
2016-05-24T05:21:17.019Z,55.38
2016-05-24T05:22:17.163Z,55
2016-05-24T05:23:17.135Z,54.9
2016-05-24T05:24:17.136Z,54.03
2016-05-24T05:25:17.124Z,51.53
2016-05-24T05:26:17.096Z,54.71
2016-05-24T05:27:17.098Z,54.42
2016-05-24T05:28:17.084Z,54.13
2016-05-24T05:29:17.071Z,53.55
2016-05-24T05:30:17.324Z,53.55
2016-05-24T05:31:17.031Z,53.55
2016-05-24T05:32:17.033Z,53.84
2016-05-24T05:33:16.849Z,53.74
2016-05-24T05:34:16.992Z,53.84
2016-05-24T05:35:16.978Z,54.03
2016-05-24T05:36:16.966Z,54.61
2016-05-24T05:37:16.953Z,54.13
2016-05-24T05:38:16.939Z,53.55
2016-05-24T05:39:16.770Z,53.65
2016-05-24T05:40:16.914Z,53.84
2016-05-24T05:41:16.901Z,53.65
2016-05-24T05:42:16.731Z,53.74
2016-05-24T05:43:16.875Z,54.52
2016-05-24T05:44:16.862Z,54.03
2016-05-24T05:45:16.849Z,54.52
2016-05-24T05:46:16.836Z,54.22
2016-05-24T05:47:16.823Z,53.94
2016-05-24T05:48:16.826Z,54.22
2016-05-24T05:49:16.798Z,54.22
2016-05-24T05:50:16.785Z,53.84
2016-05-24T05:51:16.803Z,53.84
2016-05-24T05:52:16.758Z,53.65
2016-05-24T05:53:16.761Z,53.94
2016-05-24T05:54:16.732Z,53.94
2016-05-24T05:55:16.720Z,54.03
2016-05-24T05:56:16.707Z,54.22
2016-05-24T05:57:16.710Z,53.84
2016-05-24T05:58:16.524Z,53.55
2016-05-24T05:59:16.668Z,53.94
2016-05-24T06:00:16.687Z,54.61
2016-05-24T06:01:16.642Z,54.52
2016-05-24T06:02:16.629Z,54.22
2016-05-24T06:03:16.616Z,53.55
2016-05-24T06:04:16.604Z,53.55
2016-05-24T06:05:16.590Z,53.55
2016-05-24T06:06:16.578Z,50.85
2016-05-24T06:07:16.673Z,51.34
2016-05-24T06:08:16.551Z,50.25
2016-05-24T06:09:16.553Z,51.19
2016-05-24T06:10:16.541Z,51.07
2016-05-24T06:11:16.514Z,51.07
2016-05-24T06:12:16.703Z,51.26
2016-05-24T06:13:18.299Z,50.78
2016-05-24T06:14:16.471Z,50.97
2016-05-24T06:15:16.664Z,50.97
2016-05-24T06:16:17.447Z,50.78
2016-05-24T06:17:16.651Z,51.35
2016-05-24T06:18:16.419Z,52.34
2016-05-24T06:19:16.407Z,52.15
2016-05-24T06:20:16.394Z,51.6
2016-05-24T06:21:16.381Z,51.7
2016-05-24T06:22:16.368Z,51.89
2016-05-24T06:23:16.652Z,51.89
2016-05-24T06:24:16.326Z,52.11
2016-05-24T06:25:16.329Z,52.11
2016-05-24T06:26:16.316Z,51.72
2016-05-24T06:27:16.147Z,52.11
2016-05-24T06:28:16.134Z,51.72
2016-05-24T06:29:16.121Z,51.92
2016-05-24T06:30:16.296Z,51.92
2016-05-24T06:31:16.689Z,52.11
2016-05-24T06:32:16.238Z,51.92
2016-05-24T06:33:16.226Z,51.92
2016-05-24T06:34:16.198Z,51.72
2016-05-24T06:35:16.200Z,51.92
2016-05-24T06:36:16.187Z,51.92
2016-05-24T06:37:16.174Z,51.82
2016-05-24T06:38:16.161Z,51.82
2016-05-24T06:39:15.976Z,51.43
2016-05-24T06:40:16.120Z,51.92
2016-05-24T06:41:16.123Z,52.01
2016-05-24T06:42:16.094Z,51.72
2016-05-24T06:43:16.096Z,51.62
2016-05-24T06:44:16.083Z,51.92
2016-05-24T06:45:16.055Z,51.92
2016-05-24T06:46:16.058Z,51.62
2016-05-24T06:47:16.686Z,51.62
2016-05-24T06:48:16.016Z,52.11
2016-05-24T06:49:16.003Z,51.72
2016-05-24T06:50:15.991Z,51.72
2016-05-24T06:51:15.994Z,51.72
2016-05-24T06:52:15.964Z,51.92
2016-05-24T06:53:15.952Z,52.11
2016-05-24T06:54:15.954Z,52.11
2016-05-24T06:55:15.988Z,52.2
2016-05-24T06:56:15.928Z,52.3
2016-05-24T06:57:15.946Z,52.3
2016-05-24T06:58:16.012Z,52.11
2016-05-24T06:59:15.874Z,52.2
2016-05-24T07:00:16.377Z,52.4
2016-05-24T07:01:15.849Z,52.3
2016-05-24T07:02:15.835Z,52.3
2016-05-24T07:03:15.979Z,52.3
2016-05-24T07:04:15.809Z,52.2
2016-05-24T07:05:15.796Z,52.4
2016-05-24T07:06:15.784Z,52.2
2016-05-24T07:07:15.770Z,52.2
2016-05-24T07:08:15.757Z,52.3
2016-05-24T07:09:15.760Z,52.3
2016-05-24T07:10:15.732Z,52.3
2016-05-24T07:11:16.031Z,52.4
2016-05-24T07:12:15.706Z,52.11
2016-05-24T07:13:15.553Z,52.87
2016-05-24T07:14:15.681Z,52.69
2016-05-24T07:15:15.667Z,52.59
2016-05-24T07:16:15.653Z,50.76
2016-05-24T07:17:15.531Z,50.15
2016-05-24T07:18:15.644Z,50.61
2016-05-24T07:19:16.896Z,51.17
2016-05-24T07:20:15.602Z,50.97
2016-05-24T07:21:15.589Z,51.72
2016-05-24T07:22:15.577Z,50.95
2016-05-24T07:23:15.563Z,52.51
2016-05-24T07:24:15.394Z,51.57
2016-05-24T07:25:15.538Z,51.57
2016-05-24T07:26:15.697Z,51.02
2016-05-24T07:27:16.011Z,51.12
2016-05-24T07:28:15.577Z,50.93
2016-05-24T07:29:15.486Z,51.21
2016-05-24T07:30:15.973Z,51.14
2016-05-24T07:31:15.460Z,51.14
2016-05-24T07:32:15.524Z,51.14
2016-05-24T07:33:15.449Z,51.72
2016-05-24T07:34:15.687Z,52.01
2016-05-24T07:35:15.408Z,51.92
2016-05-24T07:36:15.239Z,52.2
2016-05-24T07:37:15.304Z,52.11
2016-05-24T07:38:15.370Z,49.12
2016-05-24T07:39:15.357Z,49.1
2016-05-24T07:40:15.343Z,50.01
2016-05-24T07:41:15.331Z,50.27
2016-05-24T07:42:15.676Z,50.34
2016-05-24T07:43:15.398Z,50.51
2016-05-24T07:44:15.292Z,50.99
2016-05-24T07:45:15.278Z,50.13
2016-05-24T07:46:15.110Z,51.54
2016-05-24T07:47:15.253Z,51.25
2016-05-24T07:48:15.239Z,51.06
2016-05-24T07:49:15.228Z,50.78
2016-05-24T07:50:17.448Z,51.06
2016-05-24T07:51:15.045Z,50.99
2016-05-24T07:52:15.189Z,49.87
2016-05-24T07:53:15.160Z,49.12
2016-05-24T07:54:15.147Z,50.68
2016-05-24T07:55:15.227Z,49.33
2016-05-24T07:56:15.121Z,49.17
2016-05-24T07:57:15.124Z,49.17
2016-05-24T07:58:15.799Z,49.36
2016-05-24T07:59:15.082Z,49.46
2016-05-24T08:00:15.600Z,49.74
2016-05-24T08:01:15.071Z,49.58
2016-05-24T08:02:15.059Z,49.87
2016-05-24T08:03:15.108Z,49.68
2016-05-24T08:04:15.018Z,50.06
2016-05-24T08:05:15.005Z,49.87
2016-05-24T08:06:15.851Z,50.06
2016-05-24T08:07:14.994Z,50.25
2016-05-24T08:08:14.965Z,50.06
2016-05-24T08:09:14.953Z,50.06
2016-05-24T08:10:14.784Z,50.25
2016-05-24T08:11:14.927Z,50.45
2016-05-24T08:12:14.929Z,50.06
2016-05-24T08:13:14.917Z,50.54
2016-05-24T08:14:15.060Z,50.63
2016-05-24T08:15:14.719Z,50.47
2016-05-24T08:16:14.956Z,50.15
2016-05-24T08:17:14.865Z,50.35
2016-05-24T08:18:14.837Z,50.63
2016-05-24T08:19:14.823Z,50.76
2016-05-24T08:20:15.716Z,50.73
2016-05-24T08:21:14.860Z,50.37
2016-05-24T08:22:16.020Z,50.73
2016-05-24T08:23:14.600Z,50.76
2016-05-24T08:24:14.759Z,51.14
2016-05-24T08:25:14.747Z,50.76
2016-05-24T08:26:14.624Z,50.37
2016-05-24T08:27:14.547Z,50.57
2016-05-24T08:28:14.691Z,50.57
2016-05-24T08:29:14.678Z,50.37
2016-05-24T08:30:16.103Z,50.57
2016-05-24T08:31:14.668Z,50.47
2016-05-24T08:32:14.655Z,50.18
2016-05-24T08:33:14.471Z,50.47
2016-05-24T08:34:14.613Z,50.27
2016-05-24T08:35:15.241Z,50.37
2016-05-24T08:36:14.432Z,50.76
2016-05-24T08:37:14.591Z,50.57
2016-05-24T08:38:14.968Z,50.76
2016-05-24T08:39:14.580Z,50.66
2016-05-24T08:40:14.379Z,50.85
2016-05-24T08:41:14.523Z,50.76
2016-05-24T08:42:14.526Z,50.85
2016-05-24T08:43:14.498Z,50.76
2016-05-24T08:44:14.485Z,50.57
2016-05-24T08:45:14.503Z,50.95
2016-05-24T08:46:14.318Z,50.66
2016-05-24T08:47:14.461Z,50.66
2016-05-24T08:48:14.448Z,50.85
2016-05-24T08:49:14.419Z,50.85
2016-05-24T08:50:14.422Z,50.76
2016-05-24T08:51:14.442Z,51.14
2016-05-24T08:52:14.381Z,50.66
2016-05-24T08:53:14.227Z,50.76
2016-05-24T08:54:14.355Z,50.76
2016-05-24T08:55:14.420Z,50.66
2016-05-24T08:56:14.344Z,50.37
2016-05-24T08:57:14.317Z,50.57
2016-05-24T08:58:14.303Z,50.76
2016-05-24T08:59:14.306Z,50.85
2016-05-24T09:00:15.980Z,50.85
2016-05-24T09:01:14.749Z,50.66
2016-05-24T09:02:14.252Z,50.47
2016-05-24T09:03:14.238Z,50.66
2016-05-24T09:04:14.070Z,51.14
2016-05-24T09:05:14.057Z,50.85
2016-05-24T09:06:14.199Z,51.34
2016-05-24T09:07:14.171Z,51.24
2016-05-24T09:08:14.174Z,51.34
2016-05-24T09:09:14.161Z,51.34
2016-05-24T09:10:13.992Z,51.14
2016-05-24T09:11:14.135Z,51.05
2016-05-24T09:12:14.138Z,51.34
2016-05-24T09:13:14.110Z,50.95
2016-05-24T09:14:14.112Z,51.53
2016-05-24T09:15:16.459Z,51.34
2016-05-24T09:16:14.743Z,51.14
2016-05-24T09:17:14.198Z,51.24
2016-05-24T09:18:14.045Z,51.05
2016-05-24T09:19:13.891Z,51.14
2016-05-24T09:20:18.237Z,51.24
2016-05-24T09:21:14.006Z,51.43
2016-05-24T09:22:13.993Z,51.62
2016-05-24T09:23:13.995Z,51.43
2016-05-24T09:24:13.983Z,51.43
2016-05-24T09:25:15.501Z,51.53
2016-05-24T09:26:13.926Z,51.36
2016-05-24T09:27:13.913Z,51.56
2016-05-24T09:28:13.915Z,51.24
2016-05-24T09:29:13.965Z,51.34
2016-05-24T09:30:16.389Z,51.14
2016-05-24T09:31:13.736Z,51.46
2016-05-24T09:32:13.692Z,51.26
2016-05-24T09:33:13.835Z,51.14
2016-05-24T09:34:13.822Z,51.05
2016-05-24T09:35:13.841Z,51.53
2016-05-24T09:36:13.812Z,51.46
2016-05-24T09:37:13.782Z,51.34
2016-05-24T09:38:13.786Z,52.11
2016-05-24T09:39:13.773Z,51.82
2016-05-24T09:40:13.760Z,52.11
2016-05-24T09:41:13.732Z,51.92
2016-05-24T09:42:13.734Z,51.24
2016-05-24T09:43:13.784Z,51.75
2016-05-24T09:44:13.709Z,51.94
2016-05-24T09:45:17.023Z,52.04
2016-05-24T09:46:14.120Z,52.2
2016-05-24T09:47:13.653Z,52.11
2016-05-24T09:48:13.641Z,51.07
2016-05-24T09:49:13.676Z,51.14
2016-05-24T09:50:14.302Z,51.36
2016-05-24T09:51:13.603Z,51.36
2016-05-24T09:52:13.495Z,51.07
2016-05-24T09:53:13.608Z,51.36
2016-05-24T09:54:13.548Z,51.17
2016-05-24T09:55:13.550Z,51.36
2016-05-24T09:56:13.553Z,51.36
2016-05-24T09:57:13.650Z,51.36
2016-05-24T09:58:13.402Z,51.07
2016-05-24T09:59:13.499Z,51.26
2016-05-24T10:00:13.361Z,51.26
2016-05-24T10:01:13.473Z,51.46
2016-05-24T10:02:13.475Z,51.84
2016-05-24T10:03:13.447Z,51.36
2016-05-24T10:04:13.434Z,51.26
2016-05-24T10:05:13.265Z,51.56
2016-05-24T10:06:13.407Z,51.17
2016-05-24T10:07:13.424Z,51.17
2016-05-24T10:08:13.262Z,51.36
2016-05-24T10:09:13.442Z,51.36
2016-05-24T10:10:13.451Z,51.36
2016-05-24T10:11:13.476Z,50.95
2016-05-24T10:12:13.444Z,51.26
2016-05-24T10:13:13.440Z,51.36
2016-05-24T10:14:13.513Z,51.17
2016-05-24T10:15:13.711Z,50.98
2016-05-24T10:16:13.426Z,50.98
2016-05-24T10:17:13.417Z,51.36
2016-05-24T10:18:13.439Z,51.36
2016-05-24T10:19:13.413Z,51.17
2016-05-24T10:20:13.418Z,51.26
2016-05-24T10:21:13.377Z,51.36
2016-05-24T10:22:13.365Z,50.98
2016-05-24T10:23:13.354Z,51.07
2016-05-24T10:24:13.186Z,51.26
2016-05-24T10:25:13.329Z,51.17
2016-05-24T10:26:13.333Z,51.17
2016-05-24T10:27:13.306Z,50.98
2016-05-24T10:28:13.309Z,51.36
2016-05-24T10:29:13.281Z,51.56
2016-05-24T10:30:13.268Z,51.17
2016-05-24T10:31:13.256Z,51.46
2016-05-24T10:32:13.243Z,51.17
2016-05-24T10:33:13.277Z,51.36
2016-05-24T10:34:13.217Z,51.56
2016-05-24T10:35:13.204Z,51.17
2016-05-24T10:36:13.190Z,51.17
2016-05-24T10:37:13.193Z,51.36
2016-05-24T10:38:13.243Z,51.17
2016-05-24T10:39:13.153Z,51.36
2016-05-24T10:40:13.139Z,50.88
2016-05-24T10:41:13.126Z,50.49
2016-05-24T10:42:12.942Z,50.59
2016-05-24T10:43:13.100Z,50.98
2016-05-24T10:44:13.103Z,51.46
2016-05-24T10:45:13.153Z,50.98
2016-05-24T10:46:13.155Z,51.36
2016-05-24T10:47:13.049Z,51.17
2016-05-24T10:48:13.036Z,50.88
2016-05-24T10:49:13.023Z,51.36
2016-05-24T10:50:13.025Z,50.88
2016-05-24T10:51:13.013Z,50.98
2016-05-24T10:52:12.984Z,50.4
2016-05-24T10:53:12.971Z,50.49
2016-05-24T10:54:13.161Z,50.59
2016-05-24T10:55:12.945Z,50.21
2016-05-24T10:56:12.932Z,50.3
2016-05-24T10:57:12.951Z,50.78
2016-05-24T10:58:12.938Z,50.59
2016-05-24T10:59:12.737Z,50.98
2016-05-24T11:00:13.443Z,50.88
2016-05-24T11:01:13.148Z,50.88
2016-05-24T11:02:13.152Z,50.3
2016-05-24T11:03:12.842Z,50.49
2016-05-24T11:04:12.829Z,50.69
2016-05-24T11:05:12.816Z,50.59
2016-05-24T11:06:12.803Z,50.69
2016-05-24T11:07:12.806Z,50.78
2016-05-24T11:08:12.621Z,50.49
2016-05-24T11:09:12.764Z,50.52
2016-05-24T11:10:13.204Z,50.49
2016-05-24T11:11:12.739Z,50.69
2016-05-24T11:12:12.725Z,50.49
2016-05-24T11:13:12.728Z,50.78
2016-05-24T11:14:12.699Z,50.69
2016-05-24T11:15:12.687Z,50.69
2016-05-24T11:16:12.673Z,50.88
2016-05-24T11:17:12.660Z,50.78
2016-05-24T11:18:13.195Z,50.69
2016-05-24T11:19:12.478Z,50.21
2016-05-24T11:20:12.466Z,50.78
2016-05-24T11:21:12.625Z,50.49
2016-05-24T11:22:12.596Z,50.88
2016-05-24T11:23:12.583Z,50.11
2016-05-24T11:24:12.570Z,50.69
2016-05-24T11:25:12.557Z,50.21
2016-05-24T11:26:13.200Z,50.59
2016-05-24T11:27:12.532Z,50.49
2016-05-24T11:28:12.518Z,50.88
2016-05-24T11:29:12.568Z,50.78
2016-05-24T11:30:12.743Z,50.49
2016-05-24T11:31:12.402Z,50.21
2016-05-24T11:32:12.466Z,50.49
2016-05-24T11:33:12.454Z,50.4
2016-05-24T11:34:12.504Z,50.21
2016-05-24T11:35:12.475Z,50.4
2016-05-24T11:36:12.415Z,50.59
2016-05-24T11:37:12.401Z,50.4
2016-05-24T11:38:12.232Z,50.3
2016-05-24T11:39:12.392Z,50.49
2016-05-24T11:40:12.207Z,50.69
2016-05-24T11:41:12.350Z,50.3
2016-05-24T11:42:12.478Z,50.49
2016-05-24T11:43:12.168Z,50.59
2016-05-24T11:44:12.311Z,50.69
2016-05-24T11:45:12.626Z,50.4
2016-05-24T11:46:12.128Z,50.78
2016-05-24T11:47:12.288Z,50.78
2016-05-24T11:48:12.259Z,50.49
2016-05-24T11:49:12.341Z,50.4
2016-05-24T11:50:12.484Z,50.4
2016-05-24T11:51:12.268Z,50.49
2016-05-24T11:52:12.207Z,50.69
2016-05-24T11:53:12.195Z,50.78
2016-05-24T11:54:12.183Z,50.49
2016-05-24T11:55:12.169Z,50.49
2016-05-24T11:56:12.172Z,50.49
2016-05-24T11:57:12.143Z,50.69
2016-05-24T11:58:12.490Z,50.78
2016-05-24T11:59:12.133Z,50.3
2016-05-24T12:00:12.120Z,50.59
2016-05-24T12:01:12.263Z,50.49
2016-05-24T12:02:12.079Z,50.59
2016-05-24T12:03:12.081Z,50.78
2016-05-24T12:04:11.896Z,50.4
2016-05-24T12:05:12.087Z,50.62
2016-05-24T12:06:12.480Z,50.42
2016-05-24T12:07:12.029Z,50.69
2016-05-24T12:08:12.017Z,50.78
2016-05-24T12:09:11.988Z,50.88
2016-05-24T12:10:11.991Z,50.59
2016-05-24T12:11:11.962Z,50.52
2016-05-24T12:12:11.949Z,50.23
2016-05-24T12:13:12.201Z,50.52
2016-05-24T12:14:11.923Z,50.42
2016-05-24T12:15:12.270Z,50.32
2016-05-24T12:16:11.772Z,50.32
2016-05-24T12:17:11.884Z,50.42
2016-05-24T12:18:11.715Z,50.42
2016-05-24T12:19:11.859Z,50.62
2016-05-24T12:20:11.845Z,48.01
2016-05-24T12:21:12.144Z,48.64
2016-05-24T12:22:11.820Z,49.84
2016-05-24T12:23:11.822Z,49.74
2016-05-24T12:24:11.810Z,49.77
2016-05-24T12:25:11.796Z,50.15
2016-05-24T12:26:11.784Z,49.7
2016-05-24T12:27:11.771Z,50.09
2016-05-24T12:28:11.757Z,50.09
2016-05-24T12:29:12.151Z,49.79
2016-05-24T12:30:13.372Z,49.89
2016-05-24T12:31:11.563Z,50.01
2016-05-24T12:32:11.691Z,49.91
2016-05-24T12:33:11.677Z,49.73
2016-05-24T12:34:11.680Z,50.11
2016-05-24T12:35:11.668Z,50.01
2016-05-24T12:36:11.639Z,49.91
2016-05-24T12:37:12.220Z,50.01
2016-05-24T12:38:11.613Z,50.3
2016-05-24T12:39:11.600Z,50.21
2016-05-24T12:40:11.603Z,50.49
2016-05-24T12:41:11.574Z,50.11
2016-05-24T12:42:11.576Z,50.11
2016-05-24T12:43:11.564Z,50.3
2016-05-24T12:44:12.956Z,50.11
2016-05-24T12:45:11.537Z,50.11
2016-05-24T12:46:11.526Z,50.11
2016-05-24T12:47:11.512Z,50.3
2016-05-24T12:48:11.499Z,50.71
2016-05-24T12:49:13.861Z,50.69
2016-05-24T12:50:11.473Z,50.69
2016-05-24T12:51:11.461Z,50.49
2016-05-24T12:52:11.292Z,50.59
2016-05-24T12:53:11.575Z,50.59
2016-05-24T12:54:11.437Z,50.4